sensor_id;sensor_type;location;lat;lon;timestamp;P1;durP1;ratioP1;P2;durP2;ratioP2
10811;SDS011;5458;51.496;7.334;2022-07-15T00:02:17;2.70;;;1.25;;
10811;SDS011;5458;51.496;7.334;2022-07-15T00:04:43;2.45;;;1.75;;
10811;SDS011;5458;51.496;7.334;2022-07-15T00:07:08;4.05;;;1.70;;
10811;SDS011;5458;51.496;7.334;2022-07-15T00:09:34;4.97;;;2.13;;
10811;SDS011;5458;51.496;7.334;2022-07-15T00:12:18;2.95;;;1.23;;
10811;SDS011;5458;51.496;7.334;2022-07-15T00:14:44;3.00;;;1.60;;
10811;SDS011;5458;51.496;7.334;2022-07-15T00:17:10;4.82;;;2.13;;
10811;SDS011;5458;51.496;7.334;2022-07-15T00:19:35;4.95;;;1.75;;
10811;SDS011;5458;51.496;7.334;2022-07-15T00:22:01;2.58;;;1.60;;
10811;SDS011;5458;51.496;7.334;2022-07-15T00:24:27;3.83;;;1.83;;
10811;SDS011;5458;51.496;7.334;2022-07-15T00:26:53;5.22;;;1.70;;
10811;SDS011;5458;51.496;7.334;2022-07-15T00:29:19;5.68;;;2.28;;
10811;SDS011;5458;51.496;7.334;2022-07-15T00:31:45;4.53;;;1.40;;
10811;SDS011;5458;51.496;7.334;2022-07-15T00:34:10;2.67;;;1.50;;
10811;SDS011;5458;51.496;7.334;2022-07-15T00:36:37;4.07;;;2.30;;
10811;SDS011;5458;51.496;7.334;2022-07-15T00:39:02;6.70;;;1.60;;
10811;SDS011;5458;51.496;7.334;2022-07-15T00:41:35;2.90;;;1.55;;
10811;SDS011;5458;51.496;7.334;2022-07-15T00:44:01;3.85;;;1.30;;
10811;SDS011;5458;51.496;7.334;2022-07-15T00:46:27;2.00;;;1.25;;
10811;SDS011;5458;51.496;7.334;2022-07-15T00:48:53;1.52;;;1.42;;
10811;SDS011;5458;51.496;7.334;2022-07-15T00:51:18;2.42;;;1.27;;
10811;SDS011;5458;51.496;7.334;2022-07-15T00:53:44;3.08;;;1.25;;
10811;SDS011;5458;51.496;7.334;2022-07-15T00:56:11;3.80;;;1.65;;
10811;SDS011;5458;51.496;7.334;2022-07-15T00:58:41;7.28;;;1.70;;
10811;SDS011;5458;51.496;7.334;2022-07-15T01:01:08;5.28;;;1.60;;
10811;SDS011;5458;51.496;7.334;2022-07-15T01:03:35;4.30;;;1.80;;
10811;SDS011;5458;51.496;7.334;2022-07-15T01:06:02;5.65;;;1.80;;
10811;SDS011;5458;51.496;7.334;2022-07-15T01:08:28;6.13;;;1.77;;
10811;SDS011;5458;51.496;7.334;2022-07-15T01:10:54;2.65;;;1.70;;
10811;SDS011;5458;51.496;7.334;2022-07-15T01:13:21;3.08;;;1.60;;
10811;SDS011;5458;51.496;7.334;2022-07-15T01:15:47;3.35;;;1.92;;
10811;SDS011;5458;51.496;7.334;2022-07-15T01:18:14;4.57;;;1.40;;
10811;SDS011;5458;51.496;7.334;2022-07-15T01:20:40;4.45;;;1.52;;
10811;SDS011;5458;51.496;7.334;2022-07-15T01:23:06;2.75;;;1.83;;
10811;SDS011;5458;51.496;7.334;2022-07-15T01:25:32;2.80;;;1.63;;
10811;SDS011;5458;51.496;7.334;2022-07-15T01:27:58;8.32;;;1.50;;
10811;SDS011;5458;51.496;7.334;2022-07-15T01:30:24;3.63;;;1.60;;
10811;SDS011;5458;51.496;7.334;2022-07-15T01:32:50;2.13;;;1.50;;
10811;SDS011;5458;51.496;7.334;2022-07-15T01:35:16;2.53;;;1.52;;
10811;SDS011;5458;51.496;7.334;2022-07-15T01:37:43;3.25;;;1.67;;
10811;SDS011;5458;51.496;7.334;2022-07-15T01:40:09;3.53;;;1.80;;
10811;SDS011;5458;51.496;7.334;2022-07-15T01:42:35;1.90;;;1.50;;
10811;SDS011;5458;51.496;7.334;2022-07-15T01:45:02;2.60;;;1.30;;
10811;SDS011;5458;51.496;7.334;2022-07-15T01:47:28;4.97;;;1.60;;
10811;SDS011;5458;51.496;7.334;2022-07-15T01:49:54;3.92;;;1.75;;
10811;SDS011;5458;51.496;7.334;2022-07-15T01:52:20;4.90;;;2.28;;
10811;SDS011;5458;51.496;7.334;2022-07-15T01:54:45;4.13;;;1.88;;
10811;SDS011;5458;51.496;7.334;2022-07-15T01:57:11;3.58;;;1.90;;
10811;SDS011;5458;51.496;7.334;2022-07-15T01:59:37;4.03;;;1.73;;
10811;SDS011;5458;51.496;7.334;2022-07-15T02:02:03;3.92;;;2.05;;
10811;SDS011;5458;51.496;7.334;2022-07-15T02:04:28;4.78;;;1.60;;
10811;SDS011;5458;51.496;7.334;2022-07-15T02:06:54;5.28;;;1.70;;
10811;SDS011;5458;51.496;7.334;2022-07-15T02:09:19;5.10;;;2.17;;
10811;SDS011;5458;51.496;7.334;2022-07-15T02:11:45;2.08;;;1.50;;
10811;SDS011;5458;51.496;7.334;2022-07-15T02:14:11;5.45;;;1.98;;
10811;SDS011;5458;51.496;7.334;2022-07-15T02:16:37;3.47;;;1.70;;
10811;SDS011;5458;51.496;7.334;2022-07-15T02:19:02;5.05;;;1.60;;
10811;SDS011;5458;51.496;7.334;2022-07-15T02:21:28;6.53;;;2.38;;
10811;SDS011;5458;51.496;7.334;2022-07-15T02:23:55;3.55;;;1.77;;
10811;SDS011;5458;51.496;7.334;2022-07-15T02:26:22;5.95;;;1.90;;
10811;SDS011;5458;51.496;7.334;2022-07-15T02:28:48;4.65;;;1.88;;
10811;SDS011;5458;51.496;7.334;2022-07-15T02:31:13;4.38;;;1.70;;
10811;SDS011;5458;51.496;7.334;2022-07-15T02:33:39;4.68;;;2.20;;
10811;SDS011;5458;51.496;7.334;2022-07-15T02:36:07;11.18;;;2.65;;
10811;SDS011;5458;51.496;7.334;2022-07-15T02:38:33;3.58;;;1.48;;
10811;SDS011;5458;51.496;7.334;2022-07-15T02:40:58;5.85;;;1.83;;
10811;SDS011;5458;51.496;7.334;2022-07-15T02:43:24;4.60;;;2.40;;
10811;SDS011;5458;51.496;7.334;2022-07-15T02:45:50;4.30;;;1.92;;
10811;SDS011;5458;51.496;7.334;2022-07-15T02:48:15;4.90;;;1.60;;
10811;SDS011;5458;51.496;7.334;2022-07-15T02:50:41;3.95;;;1.90;;
10811;SDS011;5458;51.496;7.334;2022-07-15T02:53:07;6.78;;;1.83;;
10811;SDS011;5458;51.496;7.334;2022-07-15T02:55:33;4.70;;;2.20;;
10811;SDS011;5458;51.496;7.334;2022-07-15T02:57:59;4.93;;;2.05;;
10811;SDS011;5458;51.496;7.334;2022-07-15T03:00:25;3.35;;;1.67;;
10811;SDS011;5458;51.496;7.334;2022-07-15T03:02:51;3.40;;;1.63;;
10811;SDS011;5458;51.496;7.334;2022-07-15T03:05:17;4.97;;;1.90;;
10811;SDS011;5458;51.496;7.334;2022-07-15T03:07:43;6.32;;;1.92;;
10811;SDS011;5458;51.496;7.334;2022-07-15T03:10:09;6.38;;;1.77;;
10811;SDS011;5458;51.496;7.334;2022-07-15T03:12:36;4.40;;;2.50;;
10811;SDS011;5458;51.496;7.334;2022-07-15T03:15:01;4.00;;;1.85;;
10811;SDS011;5458;51.496;7.334;2022-07-15T03:17:28;3.20;;;1.73;;
10811;SDS011;5458;51.496;7.334;2022-07-15T03:19:54;4.40;;;1.92;;
10811;SDS011;5458;51.496;7.334;2022-07-15T03:22:23;5.03;;;1.60;;
10811;SDS011;5458;51.496;7.334;2022-07-15T03:24:49;6.97;;;2.22;;
10811;SDS011;5458;51.496;7.334;2022-07-15T03:27:15;6.63;;;2.75;;
10811;SDS011;5458;51.496;7.334;2022-07-15T03:29:41;4.53;;;1.98;;
10811;SDS011;5458;51.496;7.334;2022-07-15T03:32:07;2.80;;;2.38;;
10811;SDS011;5458;51.496;7.334;2022-07-15T03:34:35;4.07;;;1.80;;
10811;SDS011;5458;51.496;7.334;2022-07-15T03:37:01;4.13;;;2.17;;
10811;SDS011;5458;51.496;7.334;2022-07-15T03:39:27;5.72;;;2.35;;
10811;SDS011;5458;51.496;7.334;2022-07-15T03:41:53;3.65;;;2.22;;
10811;SDS011;5458;51.496;7.334;2022-07-15T03:44:18;6.15;;;2.30;;
10811;SDS011;5458;51.496;7.334;2022-07-15T03:46:44;3.22;;;1.95;;
10811;SDS011;5458;51.496;7.334;2022-07-15T03:49:13;4.57;;;2.20;;
10811;SDS011;5458;51.496;7.334;2022-07-15T03:51:40;7.32;;;2.05;;
10811;SDS011;5458;51.496;7.334;2022-07-15T03:54:06;4.15;;;1.95;;
10811;SDS011;5458;51.496;7.334;2022-07-15T03:56:34;3.72;;;2.22;;
10811;SDS011;5458;51.496;7.334;2022-07-15T03:59:01;6.78;;;2.35;;
10811;SDS011;5458;51.496;7.334;2022-07-15T04:01:27;4.68;;;2.78;;
10811;SDS011;5458;51.496;7.334;2022-07-15T04:03:53;2.30;;;1.70;;
10811;SDS011;5458;51.496;7.334;2022-07-15T04:06:20;4.40;;;2.47;;
10811;SDS011;5458;51.496;7.334;2022-07-15T04:08:46;6.88;;;1.98;;
10811;SDS011;5458;51.496;7.334;2022-07-15T04:11:12;3.88;;;1.70;;
10811;SDS011;5458;51.496;7.334;2022-07-15T04:13:38;5.28;;;2.28;;
10811;SDS011;5458;51.496;7.334;2022-07-15T04:16:04;7.60;;;2.50;;
10811;SDS011;5458;51.496;7.334;2022-07-15T04:18:31;4.05;;;2.50;;
10811;SDS011;5458;51.496;7.334;2022-07-15T04:20:57;3.70;;;2.00;;
10811;SDS011;5458;51.496;7.334;2022-07-15T04:23:22;5.18;;;2.17;;
10811;SDS011;5458;51.496;7.334;2022-07-15T04:25:49;8.77;;;3.22;;
10811;SDS011;5458;51.496;7.334;2022-07-15T04:28:22;6.15;;;2.05;;
10811;SDS011;5458;51.496;7.334;2022-07-15T04:30:49;3.47;;;1.85;;
10811;SDS011;5458;51.496;7.334;2022-07-15T04:33:16;4.07;;;2.42;;
10811;SDS011;5458;51.496;7.334;2022-07-15T04:35:42;2.92;;;2.35;;
10811;SDS011;5458;51.496;7.334;2022-07-15T04:38:08;3.40;;;2.40;;
10811;SDS011;5458;51.496;7.334;2022-07-15T04:40:34;4.05;;;2.05;;
10811;SDS011;5458;51.496;7.334;2022-07-15T04:42:59;5.53;;;2.05;;
10811;SDS011;5458;51.496;7.334;2022-07-15T04:45:26;4.85;;;2.10;;
10811;SDS011;5458;51.496;7.334;2022-07-15T04:47:52;6.50;;;2.28;;
10811;SDS011;5458;51.496;7.334;2022-07-15T04:50:17;3.47;;;2.10;;
10811;SDS011;5458;51.496;7.334;2022-07-15T04:53:02;3.97;;;2.20;;
10811;SDS011;5458;51.496;7.334;2022-07-15T04:55:29;5.18;;;2.13;;
10811;SDS011;5458;51.496;7.334;2022-07-15T04:57:55;6.22;;;2.25;;
10811;SDS011;5458;51.496;7.334;2022-07-15T05:00:21;2.92;;;2.17;;
10811;SDS011;5458;51.496;7.334;2022-07-15T05:02:47;5.28;;;2.55;;
10811;SDS011;5458;51.496;7.334;2022-07-15T05:05:13;4.07;;;1.88;;
10811;SDS011;5458;51.496;7.334;2022-07-15T05:07:38;4.45;;;2.20;;
10811;SDS011;5458;51.496;7.334;2022-07-15T05:10:04;9.77;;;2.30;;
10811;SDS011;5458;51.496;7.334;2022-07-15T05:12:31;5.00;;;2.25;;
10811;SDS011;5458;51.496;7.334;2022-07-15T05:14:57;3.30;;;2.15;;
10811;SDS011;5458;51.496;7.334;2022-07-15T05:17:23;7.90;;;2.47;;
10811;SDS011;5458;51.496;7.334;2022-07-15T05:19:50;8.10;;;2.05;;
10811;SDS011;5458;51.496;7.334;2022-07-15T05:22:17;6.43;;;2.00;;
10811;SDS011;5458;51.496;7.334;2022-07-15T05:24:43;2.97;;;2.10;;
10811;SDS011;5458;51.496;7.334;2022-07-15T05:27:09;4.10;;;1.63;;
10811;SDS011;5458;51.496;7.334;2022-07-15T05:29:35;4.55;;;1.70;;
10811;SDS011;5458;51.496;7.334;2022-07-15T05:32:00;5.80;;;1.65;;
10811;SDS011;5458;51.496;7.334;2022-07-15T05:34:26;7.50;;;3.90;;
10811;SDS011;5458;51.496;7.334;2022-07-15T05:36:51;2.42;;;1.45;;
10811;SDS011;5458;51.496;7.334;2022-07-15T05:39:17;5.13;;;1.95;;
10811;SDS011;5458;51.496;7.334;2022-07-15T05:41:43;2.25;;;1.30;;
10811;SDS011;5458;51.496;7.334;2022-07-15T05:44:08;4.90;;;1.20;;
10811;SDS011;5458;51.496;7.334;2022-07-15T05:46:34;3.83;;;1.35;;
10811;SDS011;5458;51.496;7.334;2022-07-15T05:49:00;3.67;;;1.23;;
10811;SDS011;5458;51.496;7.334;2022-07-15T05:51:25;3.92;;;1.63;;
10811;SDS011;5458;51.496;7.334;2022-07-15T05:53:51;4.05;;;1.50;;
10811;SDS011;5458;51.496;7.334;2022-07-15T05:56:17;4.32;;;1.35;;
10811;SDS011;5458;51.496;7.334;2022-07-15T05:58:43;251.10;;;243.05;;
10811;SDS011;5458;51.496;7.334;2022-07-15T06:01:08;623.40;;;594.60;;
10811;SDS011;5458;51.496;7.334;2022-07-15T06:03:34;945.42;;;891.10;;
10811;SDS011;5458;51.496;7.334;2022-07-15T06:06:00;533.63;;;513.75;;
10811;SDS011;5458;51.496;7.334;2022-07-15T06:08:28;386.50;;;372.85;;
10811;SDS011;5458;51.496;7.334;2022-07-15T06:10:54;352.00;;;339.60;;
10811;SDS011;5458;51.496;7.334;2022-07-15T06:13:20;174.32;;;168.45;;
10811;SDS011;5458;51.496;7.334;2022-07-15T06:15:47;137.20;;;132.68;;
10811;SDS011;5458;51.496;7.334;2022-07-15T06:18:13;60.40;;;58.20;;
10811;SDS011;5458;51.496;7.334;2022-07-15T06:20:38;69.88;;;67.22;;
10811;SDS011;5458;51.496;7.334;2022-07-15T06:23:04;80.72;;;77.97;;
10811;SDS011;5458;51.496;7.334;2022-07-15T06:25:29;45.50;;;43.67;;
10811;SDS011;5458;51.496;7.334;2022-07-15T06:27:55;75.90;;;73.43;;
10811;SDS011;5458;51.496;7.334;2022-07-15T06:30:21;44.40;;;42.70;;
10811;SDS011;5458;51.496;7.334;2022-07-15T06:32:46;43.65;;;41.67;;
10811;SDS011;5458;51.496;7.334;2022-07-15T06:35:12;19.65;;;18.88;;
10811;SDS011;5458;51.496;7.334;2022-07-15T06:37:38;4.47;;;3.75;;
10811;SDS011;5458;51.496;7.334;2022-07-15T06:40:04;2.53;;;1.65;;
10811;SDS011;5458;51.496;7.334;2022-07-15T06:42:30;2.72;;;1.20;;
10811;SDS011;5458;51.496;7.334;2022-07-15T06:44:55;1.67;;;1.25;;
10811;SDS011;5458;51.496;7.334;2022-07-15T06:47:21;3.05;;;0.90;;
10811;SDS011;5458;51.496;7.334;2022-07-15T06:49:46;2.63;;;0.80;;
10811;SDS011;5458;51.496;7.334;2022-07-15T06:52:14;2.83;;;0.90;;
10811;SDS011;5458;51.496;7.334;2022-07-15T06:54:39;3.08;;;0.82;;
10811;SDS011;5458;51.496;7.334;2022-07-15T06:57:05;4.00;;;1.02;;
10811;SDS011;5458;51.496;7.334;2022-07-15T06:59:31;4.35;;;0.90;;
10811;SDS011;5458;51.496;7.334;2022-07-15T07:01:58;2.67;;;1.15;;
10811;SDS011;5458;51.496;7.334;2022-07-15T07:04:23;3.05;;;0.88;;
10811;SDS011;5458;51.496;7.334;2022-07-15T07:06:49;3.25;;;0.88;;
10811;SDS011;5458;51.496;7.334;2022-07-15T07:09:14;3.20;;;0.63;;
10811;SDS011;5458;51.496;7.334;2022-07-15T07:11:40;0.98;;;0.50;;
10811;SDS011;5458;51.496;7.334;2022-07-15T07:14:06;1.67;;;0.98;;
10811;SDS011;5458;51.496;7.334;2022-07-15T07:16:32;0.85;;;0.60;;
10811;SDS011;5458;51.496;7.334;2022-07-15T07:18:58;2.75;;;0.90;;
10811;SDS011;5458;51.496;7.334;2022-07-15T07:21:24;3.15;;;0.80;;
10811;SDS011;5458;51.496;7.334;2022-07-15T07:23:50;3.00;;;0.73;;
10811;SDS011;5458;51.496;7.334;2022-07-15T07:26:15;3.75;;;0.80;;
10811;SDS011;5458;51.496;7.334;2022-07-15T07:28:42;4.30;;;0.70;;
10811;SDS011;5458;51.496;7.334;2022-07-15T07:31:08;3.58;;;0.80;;
10811;SDS011;5458;51.496;7.334;2022-07-15T07:33:36;4.20;;;1.13;;
10811;SDS011;5458;51.496;7.334;2022-07-15T07:36:02;4.32;;;1.77;;
10811;SDS011;5458;51.496;7.334;2022-07-15T07:38:30;5.07;;;3.22;;
10811;SDS011;5458;51.496;7.334;2022-07-15T07:40:55;5.18;;;4.75;;
10811;SDS011;5458;51.496;7.334;2022-07-15T07:43:21;9.55;;;8.98;;
10811;SDS011;5458;51.496;7.334;2022-07-15T07:45:47;9.45;;;9.00;;
10811;SDS011;5458;51.496;7.334;2022-07-15T07:48:13;22.60;;;21.67;;
10811;SDS011;5458;51.496;7.334;2022-07-15T07:50:39;21.95;;;21.05;;
10811;SDS011;5458;51.496;7.334;2022-07-15T07:53:05;39.35;;;37.85;;
10811;SDS011;5458;51.496;7.334;2022-07-15T07:55:31;52.88;;;51.00;;
10811;SDS011;5458;51.496;7.334;2022-07-15T07:57:57;54.58;;;52.53;;
10811;SDS011;5458;51.496;7.334;2022-07-15T08:00:25;46.15;;;44.38;;
10811;SDS011;5458;51.496;7.334;2022-07-15T08:02:52;45.42;;;43.85;;
10811;SDS011;5458;51.496;7.334;2022-07-15T08:05:18;56.92;;;54.60;;
10811;SDS011;5458;51.496;7.334;2022-07-15T08:07:45;68.70;;;66.10;;
10811;SDS011;5458;51.496;7.334;2022-07-15T08:10:12;30.30;;;28.98;;
10811;SDS011;5458;51.496;7.334;2022-07-15T08:12:39;28.00;;;26.55;;
10811;SDS011;5458;51.496;7.334;2022-07-15T08:15:06;29.20;;;27.80;;
10811;SDS011;5458;51.496;7.334;2022-07-15T08:17:34;57.42;;;54.95;;
10811;SDS011;5458;51.496;7.334;2022-07-15T08:19:59;43.47;;;41.97;;
10811;SDS011;5458;51.496;7.334;2022-07-15T08:22:25;46.00;;;44.20;;
10811;SDS011;5458;51.496;7.334;2022-07-15T08:24:50;45.63;;;44.13;;
10811;SDS011;5458;51.496;7.334;2022-07-15T08:27:16;43.90;;;42.33;;
10811;SDS011;5458;51.496;7.334;2022-07-15T08:29:43;32.40;;;31.13;;
10811;SDS011;5458;51.496;7.334;2022-07-15T08:32:09;26.25;;;25.17;;
10811;SDS011;5458;51.496;7.334;2022-07-15T08:34:35;17.83;;;17.10;;
10811;SDS011;5458;51.496;7.334;2022-07-15T08:37:00;16.25;;;15.48;;
10811;SDS011;5458;51.496;7.334;2022-07-15T08:39:26;17.02;;;16.40;;
10811;SDS011;5458;51.496;7.334;2022-07-15T08:41:52;17.90;;;17.20;;
10811;SDS011;5458;51.496;7.334;2022-07-15T08:44:17;16.70;;;15.95;;
10811;SDS011;5458;51.496;7.334;2022-07-15T08:46:46;30.77;;;29.55;;
10811;SDS011;5458;51.496;7.334;2022-07-15T08:49:13;30.35;;;29.13;;
10811;SDS011;5458;51.496;7.334;2022-07-15T08:51:42;38.50;;;37.03;;
10811;SDS011;5458;51.496;7.334;2022-07-15T08:54:08;37.13;;;35.85;;
10811;SDS011;5458;51.496;7.334;2022-07-15T08:56:35;54.95;;;52.88;;
10811;SDS011;5458;51.496;7.334;2022-07-15T08:59:02;57.88;;;55.67;;
10811;SDS011;5458;51.496;7.334;2022-07-15T09:01:29;47.85;;;46.08;;
10811;SDS011;5458;51.496;7.334;2022-07-15T09:03:56;62.17;;;59.80;;
10811;SDS011;5458;51.496;7.334;2022-07-15T09:06:38;46.78;;;45.08;;
10811;SDS011;5458;51.496;7.334;2022-07-15T09:14:27;46.38;;;44.53;;
10811;SDS011;5458;51.496;7.334;2022-07-15T09:17:00;35.03;;;33.60;;
10811;SDS011;5458;51.496;7.334;2022-07-15T09:20:18;35.65;;;34.03;;
10811;SDS011;5458;51.496;7.334;2022-07-15T09:22:28;17.65;;;16.92;;
10811;SDS011;5458;51.496;7.334;2022-07-15T09:25:08;21.48;;;20.50;;
10811;SDS011;5458;51.496;7.334;2022-07-15T09:27:40;56.35;;;54.40;;
10811;SDS011;5458;51.496;7.334;2022-07-15T09:33:07;37.53;;;36.13;;
10811;SDS011;5458;51.496;7.334;2022-07-15T09:38:30;43.22;;;41.63;;
10811;SDS011;5458;51.496;7.334;2022-07-15T09:40:57;46.55;;;44.85;;
10811;SDS011;5458;51.496;7.334;2022-07-15T09:43:23;53.20;;;51.30;;
10811;SDS011;5458;51.496;7.334;2022-07-15T09:45:55;47.38;;;45.70;;
10811;SDS011;5458;51.496;7.334;2022-07-15T09:48:25;38.13;;;36.80;;
10811;SDS011;5458;51.496;7.334;2022-07-15T09:50:57;35.65;;;34.38;;
10811;SDS011;5458;51.496;7.334;2022-07-15T09:53:24;48.65;;;46.90;;
10811;SDS011;5458;51.496;7.334;2022-07-15T09:55:50;49.05;;;47.25;;
10811;SDS011;5458;51.496;7.334;2022-07-15T09:58:17;34.55;;;33.17;;
10811;SDS011;5458;51.496;7.334;2022-07-15T10:00:44;37.28;;;35.95;;
10811;SDS011;5458;51.496;7.334;2022-07-15T10:03:09;24.95;;;24.08;;
10811;SDS011;5458;51.496;7.334;2022-07-15T10:05:36;29.13;;;28.23;;
10811;SDS011;5458;51.496;7.334;2022-07-15T10:08:04;29.60;;;28.27;;
10811;SDS011;5458;51.496;7.334;2022-07-15T10:10:34;28.48;;;27.48;;
10811;SDS011;5458;51.496;7.334;2022-07-15T10:13:18;29.27;;;28.25;;
10811;SDS011;5458;51.496;7.334;2022-07-15T10:16:02;26.42;;;25.42;;
10811;SDS011;5458;51.496;7.334;2022-07-15T10:21:56;23.67;;;22.52;;
10811;SDS011;5458;51.496;7.334;2022-07-15T10:24:40;32.72;;;31.70;;
10811;SDS011;5458;51.496;7.334;2022-07-15T10:29:54;16.63;;;16.02;;
10811;SDS011;5458;51.496;7.334;2022-07-15T10:32:20;15.55;;;14.98;;
10811;SDS011;5458;51.496;7.334;2022-07-15T10:34:46;30.88;;;29.80;;
10811;SDS011;5458;51.496;7.334;2022-07-15T10:37:13;14.88;;;14.27;;
10811;SDS011;5458;51.496;7.334;2022-07-15T10:39:52;23.73;;;22.92;;
10811;SDS011;5458;51.496;7.334;2022-07-15T10:42:19;28.13;;;27.00;;
10811;SDS011;5458;51.496;7.334;2022-07-15T10:47:31;28.27;;;27.23;;
10811;SDS011;5458;51.496;7.334;2022-07-15T10:49:57;28.45;;;27.35;;
10811;SDS011;5458;51.496;7.334;2022-07-15T10:52:23;20.35;;;19.45;;
10811;SDS011;5458;51.496;7.334;2022-07-15T10:57:19;29.45;;;28.27;;
10811;SDS011;5458;51.496;7.334;2022-07-15T10:59:50;53.08;;;51.13;;
10811;SDS011;5458;51.496;7.334;2022-07-15T11:02:18;42.75;;;41.30;;
10811;SDS011;5458;51.496;7.334;2022-07-15T11:04:46;43.47;;;41.85;;
10811;SDS011;5458;51.496;7.334;2022-07-15T11:14:54;34.70;;;33.42;;
10811;SDS011;5458;51.496;7.334;2022-07-15T11:17:22;37.92;;;36.50;;
10811;SDS011;5458;51.496;7.334;2022-07-15T11:19:52;36.33;;;35.05;;
10811;SDS011;5458;51.496;7.334;2022-07-15T11:22:21;39.92;;;38.35;;
10811;SDS011;5458;51.496;7.334;2022-07-15T11:24:47;34.60;;;33.13;;
10811;SDS011;5458;51.496;7.334;2022-07-15T11:27:13;31.23;;;30.13;;
10811;SDS011;5458;51.496;7.334;2022-07-15T11:29:40;42.28;;;40.53;;
10811;SDS011;5458;51.496;7.334;2022-07-15T11:32:07;46.88;;;45.17;;
10811;SDS011;5458;51.496;7.334;2022-07-15T11:34:39;42.33;;;40.85;;
10811;SDS011;5458;51.496;7.334;2022-07-15T11:37:07;31.77;;;30.48;;
10811;SDS011;5458;51.496;7.334;2022-07-15T11:39:35;30.13;;;29.10;;
10811;SDS011;5458;51.496;7.334;2022-07-15T11:42:01;36.08;;;34.72;;
10811;SDS011;5458;51.496;7.334;2022-07-15T11:44:47;55.25;;;53.40;;
10811;SDS011;5458;51.496;7.334;2022-07-15T11:47:13;31.67;;;30.52;;
10811;SDS011;5458;51.496;7.334;2022-07-15T11:49:39;47.17;;;45.25;;
10811;SDS011;5458;51.496;7.334;2022-07-15T11:52:06;34.53;;;33.13;;
10811;SDS011;5458;51.496;7.334;2022-07-15T11:54:36;40.92;;;39.40;;
10811;SDS011;5458;51.496;7.334;2022-07-15T11:57:08;39.67;;;38.38;;
10811;SDS011;5458;51.496;7.334;2022-07-15T11:59:35;35.53;;;34.35;;
10811;SDS011;5458;51.496;7.334;2022-07-15T12:02:08;46.38;;;44.72;;
10811;SDS011;5458;51.496;7.334;2022-07-15T12:04:35;59.25;;;57.13;;
10811;SDS011;5458;51.496;7.334;2022-07-15T12:07:02;50.53;;;48.92;;
10811;SDS011;5458;51.496;7.334;2022-07-15T12:09:44;38.30;;;36.95;;
10811;SDS011;5458;51.496;7.334;2022-07-15T12:12:12;47.25;;;45.67;;
10811;SDS011;5458;51.496;7.334;2022-07-15T12:14:38;39.58;;;38.25;;
10811;SDS011;5458;51.496;7.334;2022-07-15T12:17:05;29.85;;;28.80;;
10811;SDS011;5458;51.496;7.334;2022-07-15T12:19:31;29.73;;;28.63;;
10811;SDS011;5458;51.496;7.334;2022-07-15T12:21:59;27.00;;;26.10;;
10811;SDS011;5458;51.496;7.334;2022-07-15T12:27:06;50.10;;;48.55;;
10811;SDS011;5458;51.496;7.334;2022-07-15T12:29:32;33.20;;;32.15;;
10811;SDS011;5458;51.496;7.334;2022-07-15T12:32:00;34.20;;;32.92;;
10811;SDS011;5458;51.496;7.334;2022-07-15T12:37:11;21.77;;;20.88;;
10811;SDS011;5458;51.496;7.334;2022-07-15T12:42:23;14.65;;;14.15;;
10811;SDS011;5458;51.496;7.334;2022-07-15T12:45:10;13.88;;;13.38;;
10811;SDS011;5458;51.496;7.334;2022-07-15T12:50:36;12.30;;;11.75;;
10811;SDS011;5458;51.496;7.334;2022-07-15T12:53:23;26.95;;;26.08;;
10811;SDS011;5458;51.496;7.334;2022-07-15T12:55:52;24.13;;;23.23;;
10811;SDS011;5458;51.496;7.334;2022-07-15T12:58:28;25.92;;;25.13;;
10811;SDS011;5458;51.496;7.334;2022-07-15T13:01:06;23.45;;;22.48;;
10811;SDS011;5458;51.496;7.334;2022-07-15T13:03:36;26.48;;;25.48;;
10811;SDS011;5458;51.496;7.334;2022-07-15T13:06:02;23.20;;;22.40;;
10811;SDS011;5458;51.496;7.334;2022-07-15T13:08:30;19.45;;;18.85;;
10811;SDS011;5458;51.496;7.334;2022-07-15T13:10:58;12.88;;;12.30;;
10811;SDS011;5458;51.496;7.334;2022-07-15T13:13:26;18.95;;;18.25;;
10811;SDS011;5458;51.496;7.334;2022-07-15T13:15:53;21.17;;;20.38;;
10811;SDS011;5458;51.496;7.334;2022-07-15T13:18:19;27.85;;;26.95;;
10811;SDS011;5458;51.496;7.334;2022-07-15T13:20:46;26.77;;;25.77;;
10811;SDS011;5458;51.496;7.334;2022-07-15T13:23:12;8.68;;;8.38;;
10811;SDS011;5458;51.496;7.334;2022-07-15T13:25:38;17.13;;;16.42;;
10811;SDS011;5458;51.496;7.334;2022-07-15T13:28:06;10.55;;;10.05;;
10811;SDS011;5458;51.496;7.334;2022-07-15T13:30:35;8.70;;;8.23;;
10811;SDS011;5458;51.496;7.334;2022-07-15T13:33:02;7.28;;;7.00;;
10811;SDS011;5458;51.496;7.334;2022-07-15T13:35:28;6.85;;;6.65;;
10811;SDS011;5458;51.496;7.334;2022-07-15T13:37:54;14.98;;;14.43;;
10811;SDS011;5458;51.496;7.334;2022-07-15T13:40:19;11.27;;;10.88;;
10811;SDS011;5458;51.496;7.334;2022-07-15T13:42:46;12.02;;;11.63;;
10811;SDS011;5458;51.496;7.334;2022-07-15T13:45:12;21.92;;;21.02;;
10811;SDS011;5458;51.496;7.334;2022-07-15T13:47:39;16.38;;;15.90;;
10811;SDS011;5458;51.496;7.334;2022-07-15T13:50:06;15.23;;;14.73;;
10811;SDS011;5458;51.496;7.334;2022-07-15T13:52:52;8.25;;;7.95;;
10811;SDS011;5458;51.496;7.334;2022-07-15T13:55:20;8.13;;;7.78;;
10811;SDS011;5458;51.496;7.334;2022-07-15T13:57:46;6.25;;;6.00;;
10811;SDS011;5458;51.496;7.334;2022-07-15T14:00:13;6.43;;;6.20;;
10811;SDS011;5458;51.496;7.334;2022-07-15T14:02:41;10.52;;;10.02;;
10811;SDS011;5458;51.496;7.334;2022-07-15T14:05:07;6.35;;;6.15;;
10811;SDS011;5458;51.496;7.334;2022-07-15T14:07:35;7.05;;;6.65;;
10811;SDS011;5458;51.496;7.334;2022-07-15T14:10:01;4.68;;;4.50;;
10811;SDS011;5458;51.496;7.334;2022-07-15T14:12:27;4.90;;;4.80;;
10811;SDS011;5458;51.496;7.334;2022-07-15T14:14:53;3.70;;;3.60;;
10811;SDS011;5458;51.496;7.334;2022-07-15T14:17:18;3.17;;;3.08;;
10811;SDS011;5458;51.496;7.334;2022-07-15T14:19:44;3.85;;;3.65;;
10811;SDS011;5458;51.496;7.334;2022-07-15T14:22:09;5.43;;;5.22;;
10811;SDS011;5458;51.496;7.334;2022-07-15T14:24:35;5.70;;;5.50;;
10811;SDS011;5458;51.496;7.334;2022-07-15T14:27:01;6.93;;;6.55;;
10811;SDS011;5458;51.496;7.334;2022-07-15T14:29:27;7.75;;;7.45;;
10811;SDS011;5458;51.496;7.334;2022-07-15T14:31:53;3.53;;;3.30;;
10811;SDS011;5458;51.496;7.334;2022-07-15T14:34:19;8.90;;;8.38;;
10811;SDS011;5458;51.496;7.334;2022-07-15T14:36:44;7.43;;;7.13;;
10811;SDS011;5458;51.496;7.334;2022-07-15T14:39:10;6.65;;;6.30;;
10811;SDS011;5458;51.496;7.334;2022-07-15T14:41:36;7.18;;;6.75;;
10811;SDS011;5458;51.496;7.334;2022-07-15T14:44:02;6.93;;;6.43;;
10811;SDS011;5458;51.496;7.334;2022-07-15T14:46:28;7.53;;;7.18;;
10811;SDS011;5458;51.496;7.334;2022-07-15T14:48:53;7.22;;;7.03;;
10811;SDS011;5458;51.496;7.334;2022-07-15T14:51:19;6.88;;;6.65;;
10811;SDS011;5458;51.496;7.334;2022-07-15T14:53:45;5.05;;;4.75;;
10811;SDS011;5458;51.496;7.334;2022-07-15T14:56:11;7.65;;;7.40;;
10811;SDS011;5458;51.496;7.334;2022-07-15T14:58:37;6.70;;;6.50;;
10811;SDS011;5458;51.496;7.334;2022-07-15T15:01:02;7.53;;;7.22;;
10811;SDS011;5458;51.496;7.334;2022-07-15T15:03:28;7.43;;;7.22;;
10811;SDS011;5458;51.496;7.334;2022-07-15T15:05:54;7.90;;;7.57;;
10811;SDS011;5458;51.496;7.334;2022-07-15T15:08:21;5.93;;;5.72;;
10811;SDS011;5458;51.496;7.334;2022-07-15T15:10:47;6.47;;;6.28;;
10811;SDS011;5458;51.496;7.334;2022-07-15T15:13:12;7.45;;;7.15;;
10811;SDS011;5458;51.496;7.334;2022-07-15T15:15:38;7.15;;;6.95;;
10811;SDS011;5458;51.496;7.334;2022-07-15T15:18:03;6.90;;;6.70;;
10811;SDS011;5458;51.496;7.334;2022-07-15T15:20:29;8.02;;;7.82;;
10811;SDS011;5458;51.496;7.334;2022-07-15T15:22:55;8.57;;;8.38;;
10811;SDS011;5458;51.496;7.334;2022-07-15T15:25:20;11.07;;;10.70;;
10811;SDS011;5458;51.496;7.334;2022-07-15T15:28:05;12.32;;;11.93;;
10811;SDS011;5458;51.496;7.334;2022-07-15T15:30:31;7.28;;;6.97;;
10811;SDS011;5458;51.496;7.334;2022-07-15T15:32:57;7.05;;;6.85;;